Terminal Aerodrome Forecast
Issued by NWS Charleston, WV

Home | Current Version | Previous Version | Text Only | Print | Product List | Glossary On
Versions: 1 2 3 4 5 6 7 8 9 10 11 12 13 14 15 16 17 18 19 20 21 22
000
FTUS41 KRLX 101700
TAFHTS
TAF
KHTS 101731Z 1018/1118 36006KT P6SM VCTS SCT045CB BKN110
     FM110700 00000KT 3SM BR FEW050
     FM111000 00000KT 2SM BR FEW050
     FM111200 00000KT 3SM BR FEW045
     FM111300 00000KT P6SM FEW045=

USA.gov is the U.S. government's official web portal to all federal, state and local government web resources and services.